sensor_id;sensor_type;location;lat;lon;timestamp;P1;durP1;ratioP1;P2;durP2;ratioP2
44139;SDS011;29803;51.048;4.686;2022-09-09T00:10:13;4.38;;;2.00;;
44139;SDS011;29803;51.048;4.686;2022-09-09T00:12:48;8.43;;;1.52;;
44139;SDS011;29803;51.048;4.686;2022-09-09T00:15:44;4.43;;;2.17;;
44139;SDS011;29803;51.048;4.686;2022-09-09T00:18:28;5.03;;;2.15;;
44139;SDS011;29803;51.048;4.686;2022-09-09T00:21:21;5.38;;;1.92;;
44139;SDS011;29803;51.048;4.686;2022-09-09T00:23:57;4.68;;;1.98;;
44139;SDS011;29803;51.048;4.686;2022-09-09T00:26:43;7.88;;;2.80;;
44139;SDS011;29803;51.048;4.686;2022-09-09T00:32:15;4.68;;;2.20;;
44139;SDS011;29803;51.048;4.686;2022-09-09T00:34:49;8.77;;;2.58;;
44139;SDS011;29803;51.048;4.686;2022-09-09T00:37:25;4.90;;;2.42;;
44139;SDS011;29803;51.048;4.686;2022-09-09T00:39:57;8.35;;;2.88;;
44139;SDS011;29803;51.048;4.686;2022-09-09T00:42:34;6.13;;;2.40;;
44139;SDS011;29803;51.048;4.686;2022-09-09T00:45:19;4.47;;;2.25;;
44139;SDS011;29803;51.048;4.686;2022-09-09T00:47:50;5.75;;;2.63;;
44139;SDS011;29803;51.048;4.686;2022-09-09T00:53:36;6.80;;;2.15;;
44139;SDS011;29803;51.048;4.686;2022-09-09T00:56:13;11.55;;;2.75;;
44139;SDS011;29803;51.048;4.686;2022-09-09T00:58:53;6.03;;;2.67;;
44139;SDS011;29803;51.048;4.686;2022-09-09T01:01:37;93.75;;;6.05;;
44139;SDS011;29803;51.048;4.686;2022-09-09T01:04:10;157.95;;;9.57;;
44139;SDS011;29803;51.048;4.686;2022-09-09T01:06:50;9.82;;;2.90;;
44139;SDS011;29803;51.048;4.686;2022-09-09T01:09:29;237.10;;;8.48;;
44139;SDS011;29803;51.048;4.686;2022-09-09T01:15:10;7.82;;;2.70;;
44139;SDS011;29803;51.048;4.686;2022-09-09T01:17:49;5.57;;;2.38;;
44139;SDS011;29803;51.048;4.686;2022-09-09T01:20:27;8.13;;;3.28;;
44139;SDS011;29803;51.048;4.686;2022-09-09T01:23:05;6.40;;;3.20;;
44139;SDS011;29803;51.048;4.686;2022-09-09T01:28:54;11.80;;;3.53;;
44139;SDS011;29803;51.048;4.686;2022-09-09T01:31:27;12.88;;;3.35;;
44139;SDS011;29803;51.048;4.686;2022-09-09T01:34:01;7.97;;;2.83;;
44139;SDS011;29803;51.048;4.686;2022-09-09T01:36:34;9.20;;;3.17;;
44139;SDS011;29803;51.048;4.686;2022-09-09T01:39:13;16.23;;;3.67;;
44139;SDS011;29803;51.048;4.686;2022-09-09T01:41:44;10.98;;;3.53;;
44139;SDS011;29803;51.048;4.686;2022-09-09T01:44:14;16.83;;;3.70;;
44139;SDS011;29803;51.048;4.686;2022-09-09T01:46:45;11.65;;;3.10;;
44139;SDS011;29803;51.048;4.686;2022-09-09T01:49:16;12.23;;;3.38;;
44139;SDS011;29803;51.048;4.686;2022-09-09T01:51:49;15.27;;;4.18;;
44139;SDS011;29803;51.048;4.686;2022-09-09T01:54:24;10.32;;;3.65;;
44139;SDS011;29803;51.048;4.686;2022-09-09T01:59:58;11.65;;;3.50;;
44139;SDS011;29803;51.048;4.686;2022-09-09T02:02:39;13.52;;;3.58;;
44139;SDS011;29803;51.048;4.686;2022-09-09T02:05:27;12.88;;;3.10;;
44139;SDS011;29803;51.048;4.686;2022-09-09T02:08:13;20.40;;;3.92;;
44139;SDS011;29803;51.048;4.686;2022-09-09T02:13:43;13.55;;;3.83;;
44139;SDS011;29803;51.048;4.686;2022-09-09T02:16:22;12.10;;;3.08;;
44139;SDS011;29803;51.048;4.686;2022-09-09T02:21:49;9.85;;;3.30;;
44139;SDS011;29803;51.048;4.686;2022-09-09T02:24:21;16.60;;;4.03;;
44139;SDS011;29803;51.048;4.686;2022-09-09T02:26:53;16.65;;;3.88;;
44139;SDS011;29803;51.048;4.686;2022-09-09T02:29:28;11.23;;;3.47;;
44139;SDS011;29803;51.048;4.686;2022-09-09T02:32:07;16.05;;;3.55;;
44139;SDS011;29803;51.048;4.686;2022-09-09T02:37:29;14.82;;;3.95;;
44139;SDS011;29803;51.048;4.686;2022-09-09T02:40:05;14.75;;;3.80;;
44139;SDS011;29803;51.048;4.686;2022-09-09T02:42:40;10.00;;;3.92;;
44139;SDS011;29803;51.048;4.686;2022-09-09T02:45:12;12.80;;;3.72;;
44139;SDS011;29803;51.048;4.686;2022-09-09T02:47:48;17.17;;;4.38;;
44139;SDS011;29803;51.048;4.686;2022-09-09T02:50:50;14.88;;;3.78;;
44139;SDS011;29803;51.048;4.686;2022-09-09T02:53:32;14.50;;;4.07;;
44139;SDS011;29803;51.048;4.686;2022-09-09T02:56:24;14.90;;;4.00;;
44139;SDS011;29803;51.048;4.686;2022-09-09T02:58:58;10.57;;;3.60;;
44139;SDS011;29803;51.048;4.686;2022-09-09T03:01:29;15.23;;;3.65;;
44139;SDS011;29803;51.048;4.686;2022-09-09T03:03:59;15.55;;;4.45;;
44139;SDS011;29803;51.048;4.686;2022-09-09T03:06:30;9.55;;;3.35;;
44139;SDS011;29803;51.048;4.686;2022-09-09T03:09:00;14.55;;;3.60;;
44139;SDS011;29803;51.048;4.686;2022-09-09T03:11:32;13.07;;;3.80;;
44139;SDS011;29803;51.048;4.686;2022-09-09T03:14:03;9.90;;;3.67;;
44139;SDS011;29803;51.048;4.686;2022-09-09T03:16:33;15.65;;;4.10;;
44139;SDS011;29803;51.048;4.686;2022-09-09T03:19:04;15.05;;;3.65;;
44139;SDS011;29803;51.048;4.686;2022-09-09T03:21:34;18.40;;;3.83;;
44139;SDS011;29803;51.048;4.686;2022-09-09T03:24:05;13.50;;;3.60;;
44139;SDS011;29803;51.048;4.686;2022-09-09T03:26:36;13.68;;;3.53;;
44139;SDS011;29803;51.048;4.686;2022-09-09T03:29:07;11.00;;;3.45;;
44139;SDS011;29803;51.048;4.686;2022-09-09T03:31:38;16.05;;;3.15;;
44139;SDS011;29803;51.048;4.686;2022-09-09T03:34:09;13.77;;;3.20;;
44139;SDS011;29803;51.048;4.686;2022-09-09T03:36:40;21.50;;;3.85;;
44139;SDS011;29803;51.048;4.686;2022-09-09T03:39:11;14.57;;;3.72;;
44139;SDS011;29803;51.048;4.686;2022-09-09T03:41:41;19.02;;;3.70;;
44139;SDS011;29803;51.048;4.686;2022-09-09T03:44:12;14.52;;;3.58;;
44139;SDS011;29803;51.048;4.686;2022-09-09T03:46:42;11.32;;;3.72;;
44139;SDS011;29803;51.048;4.686;2022-09-09T03:49:12;13.80;;;3.15;;
44139;SDS011;29803;51.048;4.686;2022-09-09T03:51:43;24.80;;;4.57;;
44139;SDS011;29803;51.048;4.686;2022-09-09T03:54:13;11.15;;;3.70;;
44139;SDS011;29803;51.048;4.686;2022-09-09T03:56:44;23.02;;;3.70;;
44139;SDS011;29803;51.048;4.686;2022-09-09T03:59:15;16.52;;;3.40;;
44139;SDS011;29803;51.048;4.686;2022-09-09T04:01:46;11.68;;;3.10;;
44139;SDS011;29803;51.048;4.686;2022-09-09T04:04:17;20.60;;;4.15;;
44139;SDS011;29803;51.048;4.686;2022-09-09T04:06:47;11.77;;;3.65;;
44139;SDS011;29803;51.048;4.686;2022-09-09T04:09:18;14.25;;;3.88;;
44139;SDS011;29803;51.048;4.686;2022-09-09T04:11:48;18.70;;;3.28;;
44139;SDS011;29803;51.048;4.686;2022-09-09T04:14:19;14.15;;;3.40;;
44139;SDS011;29803;51.048;4.686;2022-09-09T04:16:50;17.52;;;3.10;;
44139;SDS011;29803;51.048;4.686;2022-09-09T04:19:20;23.83;;;3.30;;
44139;SDS011;29803;51.048;4.686;2022-09-09T04:21:51;25.77;;;3.85;;
44139;SDS011;29803;51.048;4.686;2022-09-09T04:24:21;13.30;;;3.47;;
44139;SDS011;29803;51.048;4.686;2022-09-09T04:26:52;18.58;;;3.47;;
44139;SDS011;29803;51.048;4.686;2022-09-09T04:29:22;14.43;;;3.65;;
44139;SDS011;29803;51.048;4.686;2022-09-09T04:31:53;11.48;;;3.30;;
44139;SDS011;29803;51.048;4.686;2022-09-09T04:34:23;15.63;;;3.75;;
44139;SDS011;29803;51.048;4.686;2022-09-09T04:36:55;8.45;;;3.22;;
44139;SDS011;29803;51.048;4.686;2022-09-09T04:39:26;12.15;;;3.55;;
44139;SDS011;29803;51.048;4.686;2022-09-09T04:41:57;14.80;;;3.70;;
44139;SDS011;29803;51.048;4.686;2022-09-09T04:44:27;13.93;;;3.17;;
44139;SDS011;29803;51.048;4.686;2022-09-09T04:46:58;19.65;;;4.00;;
44139;SDS011;29803;51.048;4.686;2022-09-09T04:49:28;15.98;;;3.58;;
44139;SDS011;29803;51.048;4.686;2022-09-09T04:52:02;18.85;;;3.50;;
44139;SDS011;29803;51.048;4.686;2022-09-09T04:54:33;23.13;;;4.60;;
44139;SDS011;29803;51.048;4.686;2022-09-09T04:57:04;17.08;;;3.63;;
44139;SDS011;29803;51.048;4.686;2022-09-09T04:59:35;17.88;;;3.67;;
44139;SDS011;29803;51.048;4.686;2022-09-09T05:02:05;20.65;;;3.70;;
44139;SDS011;29803;51.048;4.686;2022-09-09T05:04:36;15.00;;;3.88;;
44139;SDS011;29803;51.048;4.686;2022-09-09T05:07:06;12.70;;;3.65;;
44139;SDS011;29803;51.048;4.686;2022-09-09T05:09:37;11.60;;;3.80;;
44139;SDS011;29803;51.048;4.686;2022-09-09T05:12:07;18.30;;;3.47;;
44139;SDS011;29803;51.048;4.686;2022-09-09T05:14:38;13.90;;;3.22;;
44139;SDS011;29803;51.048;4.686;2022-09-09T05:17:08;24.65;;;3.90;;
44139;SDS011;29803;51.048;4.686;2022-09-09T05:19:39;26.67;;;4.53;;
44139;SDS011;29803;51.048;4.686;2022-09-09T05:22:10;14.38;;;3.75;;
44139;SDS011;29803;51.048;4.686;2022-09-09T05:24:41;13.77;;;3.60;;
44139;SDS011;29803;51.048;4.686;2022-09-09T05:27:12;19.70;;;4.05;;
44139;SDS011;29803;51.048;4.686;2022-09-09T05:29:43;19.90;;;4.18;;
44139;SDS011;29803;51.048;4.686;2022-09-09T05:32:14;19.08;;;3.63;;
44139;SDS011;29803;51.048;4.686;2022-09-09T05:34:46;12.38;;;3.47;;
44139;SDS011;29803;51.048;4.686;2022-09-09T05:37:16;16.23;;;3.88;;
44139;SDS011;29803;51.048;4.686;2022-09-09T05:39:47;15.52;;;3.85;;
44139;SDS011;29803;51.048;4.686;2022-09-09T05:42:17;21.45;;;4.07;;
44139;SDS011;29803;51.048;4.686;2022-09-09T05:44:48;35.13;;;4.80;;
44139;SDS011;29803;51.048;4.686;2022-09-09T05:47:18;19.23;;;3.72;;
44139;SDS011;29803;51.048;4.686;2022-09-09T05:49:49;12.85;;;3.83;;
44139;SDS011;29803;51.048;4.686;2022-09-09T05:52:19;17.08;;;4.20;;
44139;SDS011;29803;51.048;4.686;2022-09-09T05:54:50;20.30;;;4.25;;
44139;SDS011;29803;51.048;4.686;2022-09-09T05:57:21;20.08;;;4.10;;
44139;SDS011;29803;51.048;4.686;2022-09-09T05:59:51;14.35;;;4.25;;
44139;SDS011;29803;51.048;4.686;2022-09-09T06:02:22;14.45;;;3.38;;
44139;SDS011;29803;51.048;4.686;2022-09-09T06:04:52;15.63;;;3.42;;
44139;SDS011;29803;51.048;4.686;2022-09-09T06:07:23;13.35;;;3.20;;
44139;SDS011;29803;51.048;4.686;2022-09-09T06:09:53;14.90;;;3.15;;
44139;SDS011;29803;51.048;4.686;2022-09-09T06:12:25;19.92;;;2.83;;
44139;SDS011;29803;51.048;4.686;2022-09-09T06:14:55;16.77;;;3.05;;
44139;SDS011;29803;51.048;4.686;2022-09-09T06:17:26;9.73;;;2.78;;
44139;SDS011;29803;51.048;4.686;2022-09-09T06:19:57;15.68;;;2.92;;
44139;SDS011;29803;51.048;4.686;2022-09-09T06:22:27;17.92;;;2.60;;
44139;SDS011;29803;51.048;4.686;2022-09-09T06:24:58;13.18;;;3.45;;
44139;SDS011;29803;51.048;4.686;2022-09-09T06:27:28;13.55;;;3.40;;
44139;SDS011;29803;51.048;4.686;2022-09-09T06:29:59;13.65;;;2.97;;
44139;SDS011;29803;51.048;4.686;2022-09-09T06:32:29;8.25;;;2.13;;
44139;SDS011;29803;51.048;4.686;2022-09-09T06:35:00;19.83;;;3.53;;
44139;SDS011;29803;51.048;4.686;2022-09-09T06:37:31;14.82;;;3.05;;
44139;SDS011;29803;51.048;4.686;2022-09-09T06:40:01;18.77;;;3.33;;
44139;SDS011;29803;51.048;4.686;2022-09-09T06:42:32;19.08;;;3.50;;
44139;SDS011;29803;51.048;4.686;2022-09-09T06:45:02;14.80;;;3.35;;
44139;SDS011;29803;51.048;4.686;2022-09-09T06:47:33;16.17;;;3.20;;
44139;SDS011;29803;51.048;4.686;2022-09-09T06:50:04;18.35;;;3.30;;
44139;SDS011;29803;51.048;4.686;2022-09-09T06:52:36;13.25;;;3.17;;
44139;SDS011;29803;51.048;4.686;2022-09-09T06:55:07;12.15;;;3.05;;
44139;SDS011;29803;51.048;4.686;2022-09-09T06:57:38;9.52;;;2.17;;
44139;SDS011;29803;51.048;4.686;2022-09-09T07:00:08;17.23;;;3.00;;
44139;SDS011;29803;51.048;4.686;2022-09-09T07:02:39;13.85;;;3.20;;
44139;SDS011;29803;51.048;4.686;2022-09-09T07:05:11;15.63;;;2.47;;
44139;SDS011;29803;51.048;4.686;2022-09-09T07:07:41;12.02;;;2.53;;
44139;SDS011;29803;51.048;4.686;2022-09-09T07:10:12;14.98;;;3.63;;
44139;SDS011;29803;51.048;4.686;2022-09-09T07:12:42;14.50;;;2.95;;
44139;SDS011;29803;51.048;4.686;2022-09-09T07:15:13;9.57;;;2.60;;
44139;SDS011;29803;51.048;4.686;2022-09-09T07:17:44;18.23;;;2.83;;
44139;SDS011;29803;51.048;4.686;2022-09-09T07:20:15;12.82;;;2.55;;
44139;SDS011;29803;51.048;4.686;2022-09-09T07:22:45;12.75;;;2.38;;
44139;SDS011;29803;51.048;4.686;2022-09-09T07:25:16;20.02;;;3.97;;
44139;SDS011;29803;51.048;4.686;2022-09-09T07:27:48;15.10;;;3.17;;
44139;SDS011;29803;51.048;4.686;2022-09-09T07:30:19;22.23;;;3.72;;
44139;SDS011;29803;51.048;4.686;2022-09-09T07:32:50;10.48;;;2.28;;
44139;SDS011;29803;51.048;4.686;2022-09-09T07:35:21;10.35;;;2.70;;
44139;SDS011;29803;51.048;4.686;2022-09-09T07:37:52;14.52;;;3.08;;
44139;SDS011;29803;51.048;4.686;2022-09-09T07:40:22;11.73;;;2.78;;
44139;SDS011;29803;51.048;4.686;2022-09-09T07:42:53;18.02;;;2.55;;
44139;SDS011;29803;51.048;4.686;2022-09-09T07:45:23;14.07;;;3.40;;
44139;SDS011;29803;51.048;4.686;2022-09-09T07:47:54;16.88;;;3.33;;
44139;SDS011;29803;51.048;4.686;2022-09-09T07:50:26;16.17;;;2.55;;
44139;SDS011;29803;51.048;4.686;2022-09-09T07:52:57;11.52;;;2.40;;
44139;SDS011;29803;51.048;4.686;2022-09-09T07:55:28;17.88;;;2.70;;
44139;SDS011;29803;51.048;4.686;2022-09-09T07:57:59;10.68;;;2.00;;
44139;SDS011;29803;51.048;4.686;2022-09-09T08:00:29;15.77;;;2.53;;
44139;SDS011;29803;51.048;4.686;2022-09-09T08:03:00;13.80;;;3.28;;
44139;SDS011;29803;51.048;4.686;2022-09-09T08:05:32;15.38;;;2.95;;
44139;SDS011;29803;51.048;4.686;2022-09-09T08:08:02;13.85;;;2.60;;
44139;SDS011;29803;51.048;4.686;2022-09-09T08:10:33;18.38;;;3.08;;
44139;SDS011;29803;51.048;4.686;2022-09-09T08:13:04;12.10;;;2.38;;
44139;SDS011;29803;51.048;4.686;2022-09-09T08:15:35;12.15;;;1.77;;
44139;SDS011;29803;51.048;4.686;2022-09-09T08:18:05;7.97;;;2.08;;
44139;SDS011;29803;51.048;4.686;2022-09-09T08:20:36;9.50;;;2.50;;
44139;SDS011;29803;51.048;4.686;2022-09-09T08:23:07;9.10;;;1.85;;
44139;SDS011;29803;51.048;4.686;2022-09-09T08:25:38;11.70;;;2.40;;
44139;SDS011;29803;51.048;4.686;2022-09-09T08:28:08;10.32;;;2.20;;
44139;SDS011;29803;51.048;4.686;2022-09-09T08:30:40;7.65;;;2.05;;
44139;SDS011;29803;51.048;4.686;2022-09-09T08:33:10;11.88;;;2.25;;
44139;SDS011;29803;51.048;4.686;2022-09-09T08:35:49;9.18;;;1.92;;
44139;SDS011;29803;51.048;4.686;2022-09-09T08:38:20;10.55;;;2.50;;
44139;SDS011;29803;51.048;4.686;2022-09-09T08:40:51;6.57;;;2.25;;
44139;SDS011;29803;51.048;4.686;2022-09-09T08:43:31;14.23;;;2.28;;
44139;SDS011;29803;51.048;4.686;2022-09-09T08:46:06;10.23;;;1.83;;
44139;SDS011;29803;51.048;4.686;2022-09-09T08:51:51;14.13;;;2.17;;
44139;SDS011;29803;51.048;4.686;2022-09-09T08:54:26;7.05;;;2.30;;
44139;SDS011;29803;51.048;4.686;2022-09-09T08:57:03;12.05;;;2.75;;
44139;SDS011;29803;51.048;4.686;2022-09-09T08:59:43;13.10;;;2.80;;
44139;SDS011;29803;51.048;4.686;2022-09-09T09:02:15;6.28;;;1.70;;
44139;SDS011;29803;51.048;4.686;2022-09-09T09:04:55;11.57;;;2.28;;
44139;SDS011;29803;51.048;4.686;2022-09-09T09:07:49;14.32;;;2.38;;
44139;SDS011;29803;51.048;4.686;2022-09-09T09:13:12;10.57;;;2.40;;
44139;SDS011;29803;51.048;4.686;2022-09-09T09:15:45;8.38;;;2.33;;
44139;SDS011;29803;51.048;4.686;2022-09-09T09:18:20;11.52;;;2.47;;
44139;SDS011;29803;51.048;4.686;2022-09-09T09:23:57;8.90;;;2.20;;
44139;SDS011;29803;51.048;4.686;2022-09-09T09:26:31;11.90;;;2.95;;
44139;SDS011;29803;51.048;4.686;2022-09-09T09:31:55;11.57;;;3.10;;
44139;SDS011;29803;51.048;4.686;2022-09-09T09:34:32;11.18;;;2.92;;
44139;SDS011;29803;51.048;4.686;2022-09-09T09:37:07;9.38;;;2.47;;
44139;SDS011;29803;51.048;4.686;2022-09-09T09:39:48;7.68;;;2.33;;
44139;SDS011;29803;51.048;4.686;2022-09-09T09:42:19;12.90;;;2.30;;
44139;SDS011;29803;51.048;4.686;2022-09-09T09:44:50;9.90;;;2.33;;
44139;SDS011;29803;51.048;4.686;2022-09-09T09:47:21;10.30;;;2.47;;
44139;SDS011;29803;51.048;4.686;2022-09-09T09:49:54;8.40;;;3.28;;
44139;SDS011;29803;51.048;4.686;2022-09-09T09:52:29;11.57;;;2.90;;
44139;SDS011;29803;51.048;4.686;2022-09-09T09:55:02;12.88;;;2.72;;
44139;SDS011;29803;51.048;4.686;2022-09-09T09:57:33;14.82;;;2.83;;
44139;SDS011;29803;51.048;4.686;2022-09-09T10:02:48;11.50;;;2.70;;
44139;SDS011;29803;51.048;4.686;2022-09-09T10:05:22;8.52;;;1.85;;
44139;SDS011;29803;51.048;4.686;2022-09-09T10:10:51;13.85;;;2.60;;
44139;SDS011;29803;51.048;4.686;2022-09-09T10:16:45;14.20;;;2.70;;
44139;SDS011;29803;51.048;4.686;2022-09-09T10:19:35;9.30;;;2.53;;
44139;SDS011;29803;51.048;4.686;2022-09-09T10:27:53;7.03;;;2.03;;
44139;SDS011;29803;51.048;4.686;2022-09-09T10:33:37;10.80;;;2.35;;
44139;SDS011;29803;51.048;4.686;2022-09-09T10:41:53;8.57;;;2.20;;
44139;SDS011;29803;51.048;4.686;2022-09-09T10:50:29;8.48;;;2.50;;
44139;SDS011;29803;51.048;4.686;2022-09-09T10:53:18;13.60;;;3.00;;
44139;SDS011;29803;51.048;4.686;2022-09-09T10:56:01;12.90;;;2.88;;
44139;SDS011;29803;51.048;4.686;2022-09-09T10:58:49;9.98;;;2.63;;
44139;SDS011;29803;51.048;4.686;2022-09-09T11:01:28;11.63;;;2.88;;
44139;SDS011;29803;51.048;4.686;2022-09-09T11:04:10;6.03;;;2.17;;
44139;SDS011;29803;51.048;4.686;2022-09-09T11:06:44;4.10;;;1.85;;
44139;SDS011;29803;51.048;4.686;2022-09-09T11:09:22;10.73;;;2.30;;
44139;SDS011;29803;51.048;4.686;2022-09-09T11:11:56;8.88;;;2.20;;
44139;SDS011;29803;51.048;4.686;2022-09-09T11:17:46;8.07;;;2.53;;
44139;SDS011;29803;51.048;4.686;2022-09-09T11:20:21;8.25;;;2.35;;
44139;SDS011;29803;51.048;4.686;2022-09-09T11:22:57;6.63;;;1.90;;
44139;SDS011;29803;51.048;4.686;2022-09-09T11:25:36;14.32;;;2.60;;
44139;SDS011;29803;51.048;4.686;2022-09-09T11:31:27;6.55;;;2.03;;
44139;SDS011;29803;51.048;4.686;2022-09-09T11:45:50;8.13;;;1.88;;
44139;SDS011;29803;51.048;4.686;2022-09-09T11:51:32;8.75;;;2.30;;
44139;SDS011;29803;51.048;4.686;2022-09-09T12:00:03;5.47;;;1.33;;
44139;SDS011;29803;51.048;4.686;2022-09-09T12:02:34;3.85;;;1.10;;
44139;SDS011;29803;51.048;4.686;2022-09-09T12:05:08;21.80;;;1.80;;
44139;SDS011;29803;51.048;4.686;2022-09-09T12:07:47;6.93;;;1.60;;
44139;SDS011;29803;51.048;4.686;2022-09-09T12:13:23;5.18;;;1.02;;
44139;SDS011;29803;51.048;4.686;2022-09-09T12:15:56;4.70;;;1.48;;
44139;SDS011;29803;51.048;4.686;2022-09-09T12:24:18;3.08;;;1.20;;
44139;SDS011;29803;51.048;4.686;2022-09-09T12:30:04;4.85;;;1.52;;
44139;SDS011;29803;51.048;4.686;2022-09-09T12:32:41;5.13;;;1.13;;
44139;SDS011;29803;51.048;4.686;2022-09-09T12:35:19;9.63;;;1.40;;
44139;SDS011;29803;51.048;4.686;2022-09-09T12:37:52;5.35;;;1.55;;
44139;SDS011;29803;51.048;4.686;2022-09-09T12:43:25;4.95;;;1.40;;
44139;SDS011;29803;51.048;4.686;2022-09-09T12:45:58;6.20;;;1.35;;
44139;SDS011;29803;51.048;4.686;2022-09-09T12:48:34;8.65;;;1.73;;
44139;SDS011;29803;51.048;4.686;2022-09-09T12:53:51;8.90;;;1.45;;
44139;SDS011;29803;51.048;4.686;2022-09-09T12:56:23;2.72;;;1.27;;
44139;SDS011;29803;51.048;4.686;2022-09-09T12:58:57;8.35;;;1.60;;
44139;SDS011;29803;51.048;4.686;2022-09-09T13:01:29;6.22;;;1.45;;
44139;SDS011;29803;51.048;4.686;2022-09-09T13:04:15;9.77;;;1.38;;
44139;SDS011;29803;51.048;4.686;2022-09-09T13:06:52;5.78;;;1.40;;
44139;SDS011;29803;51.048;4.686;2022-09-09T13:09:23;7.15;;;1.45;;
44139;SDS011;29803;51.048;4.686;2022-09-09T13:11:53;6.10;;;1.52;;
44139;SDS011;29803;51.048;4.686;2022-09-09T13:20:06;3.70;;;1.33;;
44139;SDS011;29803;51.048;4.686;2022-09-09T13:22:46;6.57;;;1.38;;
44139;SDS011;29803;51.048;4.686;2022-09-09T13:25:21;7.35;;;1.63;;
44139;SDS011;29803;51.048;4.686;2022-09-09T13:27:56;4.10;;;1.30;;
44139;SDS011;29803;51.048;4.686;2022-09-09T13:30:32;6.22;;;1.25;;
44139;SDS011;29803;51.048;4.686;2022-09-09T13:36:01;3.80;;;1.10;;
44139;SDS011;29803;51.048;4.686;2022-09-09T13:41:28;5.57;;;1.20;;
44139;SDS011;29803;51.048;4.686;2022-09-09T13:44:02;7.07;;;1.38;;
44139;SDS011;29803;51.048;4.686;2022-09-09T13:46:35;5.45;;;1.23;;
44139;SDS011;29803;51.048;4.686;2022-09-09T13:54:13;10.18;;;1.30;;
44139;SDS011;29803;51.048;4.686;2022-09-09T13:56:46;6.07;;;1.20;;
44139;SDS011;29803;51.048;4.686;2022-09-09T13:59:19;4.22;;;1.42;;
44139;SDS011;29803;51.048;4.686;2022-09-09T14:01:51;4.07;;;1.10;;
44139;SDS011;29803;51.048;4.686;2022-09-09T14:04:22;4.35;;;1.05;;
44139;SDS011;29803;51.048;4.686;2022-09-09T14:06:53;5.35;;;1.38;;
44139;SDS011;29803;51.048;4.686;2022-09-09T14:09:25;4.38;;;1.38;;
44139;SDS011;29803;51.048;4.686;2022-09-09T14:11:56;4.05;;;1.40;;
44139;SDS011;29803;51.048;4.686;2022-09-09T14:14:26;7.15;;;1.30;;
44139;SDS011;29803;51.048;4.686;2022-09-09T14:16:57;3.53;;;1.30;;
44139;SDS011;29803;51.048;4.686;2022-09-09T14:19:27;3.25;;;1.13;;
44139;SDS011;29803;51.048;4.686;2022-09-09T14:21:58;4.22;;;1.25;;
44139;SDS011;29803;51.048;4.686;2022-09-09T14:24:30;11.70;;;1.35;;
44139;SDS011;29803;51.048;4.686;2022-09-09T14:27:00;4.75;;;1.50;;
44139;SDS011;29803;51.048;4.686;2022-09-09T14:29:31;4.55;;;1.27;;
44139;SDS011;29803;51.048;4.686;2022-09-09T14:35:30;3.70;;;1.27;;
44139;SDS011;29803;51.048;4.686;2022-09-09T14:38:00;3.00;;;1.15;;
44139;SDS011;29803;51.048;4.686;2022-09-09T14:40:31;4.72;;;1.27;;
44139;SDS011;29803;51.048;4.686;2022-09-09T14:43:02;6.60;;;1.40;;
44139;SDS011;29803;51.048;4.686;2022-09-09T14:45:35;8.38;;;1.88;;
44139;SDS011;29803;51.048;4.686;2022-09-09T14:48:07;8.95;;;1.67;;
44139;SDS011;29803;51.048;4.686;2022-09-09T14:50:37;5.00;;;1.17;;
44139;SDS011;29803;51.048;4.686;2022-09-09T14:53:10;4.55;;;1.10;;
44139;SDS011;29803;51.048;4.686;2022-09-09T14:55:40;3.80;;;1.10;;
44139;SDS011;29803;51.048;4.686;2022-09-09T14:58:10;4.85;;;1.27;;
44139;SDS011;29803;51.048;4.686;2022-09-09T15:00:41;14.93;;;1.42;;
44139;SDS011;29803;51.048;4.686;2022-09-09T15:03:11;3.55;;;0.93;;
44139;SDS011;29803;51.048;4.686;2022-09-09T15:05:42;5.68;;;1.20;;
44139;SDS011;29803;51.048;4.686;2022-09-09T15:08:12;7.00;;;1.20;;
44139;SDS011;29803;51.048;4.686;2022-09-09T15:10:45;7.18;;;1.95;;
44139;SDS011;29803;51.048;4.686;2022-09-09T15:13:17;4.30;;;1.48;;
44139;SDS011;29803;51.048;4.686;2022-09-09T15:15:47;11.23;;;1.80;;
44139;SDS011;29803;51.048;4.686;2022-09-09T15:18:20;5.78;;;1.60;;
44139;SDS011;29803;51.048;4.686;2022-09-09T15:20:51;5.40;;;1.30;;
44139;SDS011;29803;51.048;4.686;2022-09-09T15:23:23;4.95;;;1.40;;
44139;SDS011;29803;51.048;4.686;2022-09-09T15:25:54;8.18;;;1.42;;
44139;SDS011;29803;51.048;4.686;2022-09-09T15:28:26;7.50;;;1.63;;
44139;SDS011;29803;51.048;4.686;2022-09-09T15:30:57;5.13;;;1.92;;
44139;SDS011;29803;51.048;4.686;2022-09-09T15:33:28;4.95;;;1.77;;
44139;SDS011;29803;51.048;4.686;2022-09-09T15:35:59;4.43;;;1.50;;
44139;SDS011;29803;51.048;4.686;2022-09-09T15:38:30;6.40;;;1.00;;
44139;SDS011;29803;51.048;4.686;2022-09-09T15:41:01;2.92;;;0.57;;
44139;SDS011;29803;51.048;4.686;2022-09-09T15:43:31;1.88;;;0.55;;
44139;SDS011;29803;51.048;4.686;2022-09-09T15:46:08;1.50;;;0.68;;
44139;SDS011;29803;51.048;4.686;2022-09-09T15:49:08;6.28;;;1.38;;
44139;SDS011;29803;51.048;4.686;2022-09-09T15:51:42;1.58;;;0.50;;
44139;SDS011;29803;51.048;4.686;2022-09-09T15:54:15;3.83;;;0.70;;
44139;SDS011;29803;51.048;4.686;2022-09-09T15:56:49;2.92;;;0.77;;
44139;SDS011;29803;51.048;4.686;2022-09-09T15:59:22;4.35;;;1.35;;
44139;SDS011;29803;51.048;4.686;2022-09-09T16:01:53;9.18;;;1.58;;
44139;SDS011;29803;51.048;4.686;2022-09-09T16:04:24;4.05;;;1.20;;
44139;SDS011;29803;51.048;4.686;2022-09-09T16:06:57;3.75;;;1.60;;
44139;SDS011;29803;51.048;4.686;2022-09-09T16:09:31;16.08;;;2.67;;
44139;SDS011;29803;51.048;4.686;2022-09-09T16:12:03;6.93;;;3.03;;
44139;SDS011;29803;51.048;4.686;2022-09-09T16:14:49;13.48;;;2.58;;
44139;SDS011;29803;51.048;4.686;2022-09-09T16:17:20;17.38;;;2.45;;
44139;SDS011;29803;51.048;4.686;2022-09-09T16:19:51;2.03;;;1.08;;
44139;SDS011;29803;51.048;4.686;2022-09-09T16:22:21;5.63;;;0.90;;
44139;SDS011;29803;51.048;4.686;2022-09-09T16:24:53;3.97;;;1.35;;
44139;SDS011;29803;51.048;4.686;2022-09-09T16:27:24;9.75;;;2.10;;
44139;SDS011;29803;51.048;4.686;2022-09-09T16:29:54;5.90;;;1.52;;
44139;SDS011;29803;51.048;4.686;2022-09-09T16:32:25;6.70;;;1.80;;
44139;SDS011;29803;51.048;4.686;2022-09-09T16:34:55;6.35;;;1.95;;
44139;SDS011;29803;51.048;4.686;2022-09-09T16:37:26;4.53;;;1.83;;
44139;SDS011;29803;51.048;4.686;2022-09-09T16:39:57;3.65;;;1.90;;
44139;SDS011;29803;51.048;4.686;2022-09-09T16:42:28;7.88;;;2.72;;
44139;SDS011;29803;51.048;4.686;2022-09-09T16:44:58;4.03;;;2.15;;
44139;SDS011;29803;51.048;4.686;2022-09-09T16:47:29;6.38;;;2.40;;
44139;SDS011;29803;51.048;4.686;2022-09-09T16:49:59;7.40;;;2.90;;
44139;SDS011;29803;51.048;4.686;2022-09-09T16:52:30;7.55;;;2.50;;
44139;SDS011;29803;51.048;4.686;2022-09-09T16:55:01;6.85;;;2.47;;
44139;SDS011;29803;51.048;4.686;2022-09-09T16:57:31;8.63;;;2.67;;
44139;SDS011;29803;51.048;4.686;2022-09-09T17:00:02;8.20;;;2.88;;
44139;SDS011;29803;51.048;4.686;2022-09-09T17:02:35;7.50;;;3.13;;
44139;SDS011;29803;51.048;4.686;2022-09-09T17:05:05;8.27;;;3.20;;
44139;SDS011;29803;51.048;4.686;2022-09-09T17:07:36;10.90;;;3.50;;
44139;SDS011;29803;51.048;4.686;2022-09-09T17:10:06;7.43;;;3.10;;
44139;SDS011;29803;51.048;4.686;2022-09-09T17:12:37;9.82;;;3.38;;
44139;SDS011;29803;51.048;4.686;2022-09-09T17:15:08;5.10;;;3.38;;
44139;SDS011;29803;51.048;4.686;2022-09-09T17:17:39;7.28;;;3.50;;
44139;SDS011;29803;51.048;4.686;2022-09-09T17:20:09;8.73;;;3.50;;
44139;SDS011;29803;51.048;4.686;2022-09-09T17:22:39;9.40;;;3.75;;
44139;SDS011;29803;51.048;4.686;2022-09-09T17:25:10;8.43;;;3.95;;
44139;SDS011;29803;51.048;4.686;2022-09-09T17:27:41;9.57;;;3.95;;
44139;SDS011;29803;51.048;4.686;2022-09-09T17:30:11;9.77;;;3.88;;
44139;SDS011;29803;51.048;4.686;2022-09-09T17:32:42;7.32;;;3.78;;
44139;SDS011;29803;51.048;4.686;2022-09-09T17:35:13;7.97;;;3.50;;